createdAt,value
2024-03-08T00:00:53.169Z,100.00
2024-03-08T00:03:55.046Z,100.00
2024-03-08T00:06:56.894Z,100.00
2024-03-08T00:09:58.734Z,100.00
2024-03-08T00:13:00.614Z,100.00
2024-03-08T00:16:03.446Z,100.00
2024-03-08T00:19:05.332Z,100.00
2024-03-08T00:22:07.298Z,100.00
2024-03-08T00:25:10.310Z,100.00
2024-03-08T00:28:16.060Z,100.00
2024-03-08T00:31:18.175Z,100.00
2024-03-08T00:34:19.933Z,100.00
2024-03-08T00:37:23.062Z,100.00
2024-03-08T00:40:24.922Z,100.00
2024-03-08T00:43:27.117Z,100.00
2024-03-08T00:46:29.909Z,100.00
2024-03-08T00:49:31.742Z,100.00
2024-03-08T00:52:35.556Z,100.00
2024-03-08T00:55:37.405Z,100.00
2024-03-08T00:58:39.255Z,100.00
2024-03-08T01:01:45.252Z,100.00
2024-03-08T01:04:48.545Z,100.00
2024-03-08T01:07:50.888Z,100.00
2024-03-08T01:10:52.643Z,100.00
2024-03-08T01:13:54.644Z,100.00
2024-03-08T01:16:56.697Z,100.00
2024-03-08T01:19:59.629Z,100.00
2024-03-08T01:23:01.431Z,100.00
2024-03-08T01:26:03.450Z,100.00
2024-03-08T01:29:05.263Z,100.00
2024-03-08T01:32:07.477Z,100.00
2024-03-08T01:35:10.768Z,100.00
2024-03-08T01:38:12.595Z,100.00
2024-03-08T01:41:15.373Z,100.00
2024-03-08T01:44:18.769Z,100.00
2024-03-08T01:47:24.151Z,100.00
2024-03-08T01:50:26.132Z,100.00
2024-03-08T01:53:29.402Z,100.00
2024-03-08T01:56:33.046Z,100.00
2024-03-08T01:59:35.116Z,100.00
2024-03-08T02:02:38.648Z,100.00
2024-03-08T02:05:42.450Z,100.00
2024-03-08T02:08:45.592Z,100.00
2024-03-08T02:11:47.571Z,100.00
2024-03-08T02:14:49.706Z,100.00
2024-03-08T02:17:51.594Z,100.00
2024-03-08T02:21:04.194Z,100.00
2024-03-08T02:24:07.150Z,100.00
2024-03-08T02:27:09.045Z,100.00
2024-03-08T02:30:13.899Z,100.00
2024-03-08T02:33:20.942Z,100.00
2024-03-08T02:36:22.856Z,100.00
2024-03-08T02:39:24.768Z,100.00
2024-03-08T02:42:26.552Z,100.00
2024-03-08T02:45:28.337Z,100.00
2024-03-08T02:48:30.199Z,100.00
2024-03-08T02:51:32.163Z,100.00
2024-03-08T02:54:33.933Z,100.00
2024-03-08T02:57:35.760Z,100.00
2024-03-08T03:00:39.916Z,100.00
2024-03-08T03:03:42.475Z,100.00
2024-03-08T03:06:44.273Z,100.00
2024-03-08T03:09:46.545Z,100.00
2024-03-08T03:12:51.944Z,100.00
2024-03-08T03:15:53.738Z,100.00
2024-03-08T03:18:57.192Z,100.00
2024-03-08T03:21:59.263Z,100.00
2024-03-08T03:25:01.659Z,100.00
2024-03-08T03:28:03.860Z,100.00
2024-03-08T03:31:07.930Z,100.00
2024-03-08T03:34:11.261Z,100.00
2024-03-08T03:37:13.753Z,100.00
2024-03-08T03:40:16.083Z,100.00
2024-03-08T03:43:17.825Z,100.00
2024-03-08T03:46:19.714Z,100.00
2024-03-08T03:49:21.629Z,100.00
2024-03-08T03:52:23.563Z,100.00
2024-03-08T03:55:25.454Z,100.00
2024-03-08T03:58:28.507Z,100.00
2024-03-08T04:01:30.838Z,100.00
2024-03-08T04:04:32.799Z,100.00
2024-03-08T04:07:35.517Z,100.00
2024-03-08T04:10:37.758Z,100.00
2024-03-08T04:13:39.566Z,100.00
2024-03-08T04:16:41.317Z,100.00
2024-03-08T04:19:43.687Z,100.00
2024-03-08T04:22:48.256Z,100.00
2024-03-08T04:25:50.103Z,100.00
2024-03-08T04:28:51.837Z,100.00
2024-03-08T04:31:57.175Z,100.00
2024-03-08T04:34:59.476Z,100.00
2024-03-08T04:38:01.257Z,100.00
2024-03-08T04:41:03.157Z,100.00
2024-03-08T04:44:05.025Z,100.00
2024-03-08T04:47:09.730Z,100.00
2024-03-08T04:50:12.456Z,100.00
2024-03-08T04:53:14.873Z,100.00
2024-03-08T04:56:17.191Z,100.00
2024-03-08T04:59:19.040Z,100.00
2024-03-08T05:02:23.959Z,100.00
2024-03-08T05:05:26.069Z,100.00
2024-03-08T05:08:27.898Z,100.00
2024-03-08T05:11:29.727Z,100.00
2024-03-08T05:14:31.627Z,100.00
2024-03-08T05:17:33.499Z,100.00
2024-03-08T05:20:36.260Z,100.00
2024-03-08T05:23:39.885Z,100.00
2024-03-08T05:26:41.733Z,100.00
2024-03-08T05:29:43.592Z,100.00
2024-03-08T05:32:47.997Z,100.00
2024-03-08T05:35:49.848Z,100.00
2024-03-08T05:38:51.772Z,100.00
2024-03-08T05:41:54.002Z,100.00
2024-03-08T05:44:58.425Z,100.00
2024-03-08T05:48:00.341Z,100.00
2024-03-08T05:51:03.329Z,100.00
2024-03-08T05:54:07.116Z,100.00
2024-03-08T05:57:09.281Z,100.00
2024-03-08T06:00:16.963Z,100.00
2024-03-08T06:03:22.588Z,100.00
2024-03-08T06:06:25.488Z,100.00
2024-03-08T06:09:27.398Z,100.00
2024-03-08T06:12:33.552Z,100.00
2024-03-08T06:15:35.941Z,100.00
2024-03-08T06:18:38.039Z,100.00
2024-03-08T06:21:40.392Z,100.00
2024-03-08T06:24:42.244Z,100.00
2024-03-08T06:27:44.910Z,100.00
2024-03-08T06:30:46.893Z,98.72
2024-03-08T06:33:51.071Z,99.10
2024-03-08T06:36:53.719Z,99.16
2024-03-08T06:39:56.452Z,97.92
2024-03-08T06:42:58.222Z,97.78
2024-03-08T06:46:00.038Z,98.33
2024-03-08T06:49:01.943Z,99.06
2024-03-08T06:52:05.295Z,97.86
2024-03-08T06:55:07.593Z,95.25
2024-03-08T06:58:11.806Z,93.95
2024-03-08T07:01:16.022Z,95.42
2024-03-08T07:04:18.048Z,94.65
2024-03-08T07:07:21.549Z,91.64
2024-03-08T07:10:26.865Z,91.79
2024-03-08T07:13:30.122Z,91.31
2024-03-08T07:16:32.092Z,92.02
2024-03-08T07:19:33.847Z,91.51
2024-03-08T07:22:37.875Z,94.45
2024-03-08T07:25:40.753Z,90.26
2024-03-08T07:28:42.572Z,92.07
2024-03-08T07:32:03.259Z,91.70
2024-03-08T07:35:08.341Z,90.71
2024-03-08T07:38:11.365Z,90.09
2024-03-08T07:41:15.677Z,90.42
2024-03-08T07:44:17.522Z,89.78
2024-03-08T07:47:21.235Z,86.70
2024-03-08T07:50:24.535Z,87.56
2024-03-08T07:53:26.422Z,87.32
2024-03-08T07:56:28.157Z,90.06
2024-03-08T07:59:31.794Z,88.34
2024-03-08T08:02:37.385Z,88.42
2024-03-08T08:05:40.528Z,86.62
2024-03-08T08:08:45.500Z,87.85
2024-03-08T08:11:48.014Z,87.34
2024-03-08T08:14:49.749Z,86.70
2024-03-08T08:17:53.169Z,87.97
2024-03-08T08:20:55.243Z,89.43
2024-03-08T08:23:57.043Z,89.13
2024-03-08T08:26:58.799Z,89.32
2024-03-08T08:30:01.461Z,91.60
2024-03-08T08:33:03.509Z,90.65
2024-03-08T08:36:05.818Z,90.29
2024-03-08T08:39:14.346Z,90.51
2024-03-08T08:42:18.956Z,89.29
2024-03-08T08:45:24.465Z,89.49
2024-03-08T08:48:35.666Z,89.44
2024-03-08T08:51:38.707Z,90.57
2024-03-08T08:54:40.621Z,90.32
2024-03-08T08:57:51.101Z,90.65
2024-03-08T09:00:53.502Z,89.28
2024-03-08T09:03:55.306Z,90.63
2024-03-08T09:06:58.014Z,91.18
2024-03-08T09:10:00.158Z,92.33
2024-03-08T09:13:05.537Z,92.57
2024-03-08T09:16:07.949Z,92.10
2024-03-08T09:19:12.145Z,90.92
2024-03-08T09:22:14.611Z,92.96
2024-03-08T09:25:16.421Z,90.95
2024-03-08T09:28:18.277Z,90.14
2024-03-08T09:31:20.977Z,89.48
2024-03-08T09:34:29.135Z,93.16
2024-03-08T09:37:35.429Z,92.71
2024-03-08T09:40:37.210Z,88.90
2024-03-08T09:43:39.713Z,88.81
2024-03-08T09:46:41.920Z,90.36
2024-03-08T09:49:44.629Z,91.05
2024-03-08T09:52:50.764Z,89.44
2024-03-08T09:55:53.287Z,88.86
2024-03-08T09:59:15.111Z,88.05
2024-03-08T10:02:17.657Z,89.41
2024-03-08T10:05:19.797Z,90.55
2024-03-08T10:08:21.714Z,90.13
2024-03-08T10:11:24.188Z,90.34
2024-03-08T10:14:29.414Z,90.80
2024-03-08T10:17:34.304Z,90.49
2024-03-08T10:20:39.442Z,90.07
2024-03-08T10:23:43.140Z,90.89
2024-03-08T10:26:45.414Z,93.27
2024-03-08T10:29:49.060Z,92.08
2024-03-08T10:32:51.029Z,92.34
2024-03-08T10:36:03.928Z,90.42
2024-03-08T10:39:22.087Z,93.29
2024-03-08T10:42:29.976Z,92.75
2024-03-08T10:45:37.755Z,90.33
2024-03-08T10:48:50.572Z,91.23
2024-03-08T10:51:54.056Z,91.84
2024-03-08T10:55:16.922Z,90.63
2024-03-08T10:58:28.277Z,91.47
2024-03-08T11:01:31.107Z,93.81
2024-03-08T11:04:34.654Z,91.42
2024-03-08T11:07:36.678Z,90.54
2024-03-08T11:10:48.835Z,88.67
2024-03-08T11:13:50.752Z,88.81
2024-03-08T11:16:52.682Z,89.82
2024-03-08T11:20:07.101Z,89.91
2024-03-08T11:23:12.691Z,89.40
2024-03-08T11:26:21.703Z,90.58
2024-03-08T11:29:33.767Z,93.20
2024-03-08T11:32:37.648Z,92.40
2024-03-08T11:35:39.937Z,94.69
2024-03-08T11:38:42.950Z,92.65
2024-03-08T11:41:46.634Z,93.64
2024-03-08T11:44:49.155Z,92.79
2024-03-08T11:47:51.825Z,94.01
2024-03-08T11:51:03.094Z,93.93
2024-03-08T11:54:05.267Z,93.37
2024-03-08T11:57:07.568Z,95.48
2024-03-08T12:00:22.856Z,94.22
2024-03-08T12:03:24.699Z,94.46
2024-03-08T12:06:28.205Z,93.78
2024-03-08T12:09:30.503Z,92.75
2024-03-08T12:12:33.861Z,93.86
2024-03-08T12:15:35.877Z,94.66
2024-03-08T12:18:39.804Z,92.17
2024-03-08T12:21:49.659Z,92.33
2024-03-08T12:25:06.669Z,91.60
2024-03-08T12:28:14.648Z,90.01
2024-03-08T12:31:26.961Z,90.01
2024-03-08T12:34:29.587Z,88.95
2024-03-08T12:37:32.568Z,90.67
2024-03-08T12:40:36.226Z,89.77
2024-03-08T12:43:38.350Z,88.48
2024-03-08T12:46:41.587Z,88.47
2024-03-08T12:49:43.550Z,89.21
2024-03-08T12:52:45.454Z,90.74
2024-03-08T12:55:47.351Z,90.84
2024-03-08T12:58:49.405Z,90.61
2024-03-08T13:01:52.752Z,91.76
2024-03-08T13:05:00.376Z,91.73
2024-03-08T13:08:23.077Z,91.58
2024-03-08T13:11:30.927Z,92.75
2024-03-08T13:14:34.375Z,93.17
2024-03-08T13:17:36.194Z,92.10
2024-03-08T13:20:46.904Z,92.28
2024-03-08T13:23:50.669Z,91.88
2024-03-08T13:26:52.487Z,91.83
2024-03-08T13:29:54.321Z,92.65
2024-03-08T13:32:56.497Z,94.20
2024-03-08T13:36:04.566Z,93.33
2024-03-08T13:39:16.357Z,93.75
2024-03-08T13:42:18.392Z,96.06
2024-03-08T13:45:25.085Z,96.77
2024-03-08T13:48:27.466Z,94.68
2024-03-08T13:51:29.214Z,93.67
2024-03-08T13:54:32.607Z,92.78
2024-03-08T13:57:34.736Z,92.57
2024-03-08T14:00:37.802Z,93.84
2024-03-08T14:03:42.749Z,95.33
2024-03-08T14:06:46.138Z,94.94
2024-03-08T14:09:47.986Z,96.27
2024-03-08T14:12:51.840Z,96.01
2024-03-08T14:15:54.097Z,95.48
2024-03-08T14:18:55.914Z,94.84
2024-03-08T14:22:00.332Z,93.13
2024-03-08T14:25:08.905Z,92.08
2024-03-08T14:28:13.577Z,90.59
2024-03-08T14:31:19.940Z,91.10
2024-03-08T14:34:22.078Z,91.99
2024-03-08T14:37:29.324Z,92.32
2024-03-08T14:40:31.822Z,91.31
2024-03-08T14:43:33.714Z,92.48
2024-03-08T14:46:36.352Z,92.91
2024-03-08T14:49:39.365Z,92.20
2024-03-08T14:52:41.434Z,91.37
2024-03-08T14:55:44.089Z,91.43
2024-03-08T14:58:47.633Z,90.19
2024-03-08T15:01:49.521Z,90.49
2024-03-08T15:04:58.461Z,90.03
2024-03-08T15:08:11.140Z,92.57
2024-03-08T15:11:22.412Z,91.88
2024-03-08T15:14:26.171Z,91.72
2024-03-08T15:17:28.020Z,94.64
2024-03-08T15:20:31.414Z,92.87
2024-03-08T15:23:37.395Z,91.30
2024-03-08T15:26:39.853Z,92.97
2024-03-08T15:29:41.911Z,92.83
2024-03-08T15:32:47.265Z,92.56
2024-03-08T15:36:00.722Z,91.98
2024-03-08T15:39:04.118Z,92.61
2024-03-08T15:42:06.690Z,91.59
2024-03-08T15:45:10.030Z,92.77
2024-03-08T15:48:11.855Z,93.01
2024-03-08T15:51:14.702Z,92.78
2024-03-08T15:54:16.948Z,91.35
2024-03-08T15:57:21.689Z,92.42
2024-03-08T16:00:43.080Z,92.55
2024-03-08T16:03:50.765Z,92.43
2024-03-08T16:06:52.734Z,92.86
2024-03-08T16:09:54.755Z,91.21
2024-03-08T16:12:57.549Z,91.50
2024-03-08T16:16:02.081Z,92.37
2024-03-08T16:19:08.450Z,92.57
2024-03-08T16:22:10.340Z,92.24
2024-03-08T16:25:14.421Z,91.92
2024-03-08T16:28:16.512Z,92.69
2024-03-08T16:31:18.344Z,94.74
2024-03-08T16:34:21.558Z,94.87
2024-03-08T16:37:26.219Z,95.54
2024-03-08T16:40:28.959Z,94.36
2024-03-08T16:43:31.107Z,95.02
2024-03-08T16:46:35.785Z,94.75
2024-03-08T16:49:43.493Z,94.08
2024-03-08T16:52:45.709Z,93.09
2024-03-08T16:55:52.638Z,94.61
2024-03-08T16:58:55.265Z,94.65
2024-03-08T17:01:57.218Z,94.84
2024-03-08T17:04:59.154Z,94.33
2024-03-08T17:08:05.946Z,94.16
2024-03-08T17:11:12.452Z,94.03
2024-03-08T17:14:14.290Z,93.82
2024-03-08T17:17:17.548Z,94.13
2024-03-08T17:20:23.408Z,94.42
2024-03-08T17:23:25.366Z,94.64
2024-03-08T17:26:27.383Z,96.24
2024-03-08T17:29:29.217Z,95.39
2024-03-08T17:32:34.677Z,95.54
2024-03-08T17:35:39.322Z,95.36
2024-03-08T17:38:51.736Z,94.89
2024-03-08T17:41:55.064Z,95.42
2024-03-08T17:45:00.080Z,94.61
2024-03-08T17:48:04.933Z,95.14
2024-03-08T17:51:06.764Z,94.76
2024-03-08T17:54:12.048Z,94.81
2024-03-08T17:57:15.617Z,95.09
2024-03-08T18:00:19.313Z,94.20
2024-03-08T18:03:28.827Z,94.24
2024-03-08T18:06:30.976Z,95.19
2024-03-08T18:09:32.741Z,94.57
2024-03-08T18:12:36.161Z,95.47
2024-03-08T18:15:37.967Z,94.49
2024-03-08T18:18:39.689Z,94.53
2024-03-08T18:21:41.474Z,94.45
2024-03-08T18:24:46.283Z,93.96
2024-03-08T18:27:48.084Z,94.21
2024-03-08T18:30:50.903Z,94.91
2024-03-08T18:33:52.834Z,94.45
2024-03-08T18:36:55.100Z,94.91
2024-03-08T18:39:57.375Z,95.02
2024-03-08T18:42:59.285Z,94.54
2024-03-08T18:46:02.368Z,95.06
2024-03-08T18:49:06.236Z,94.54
2024-03-08T18:52:08.501Z,95.30
2024-03-08T18:55:10.921Z,95.62
2024-03-08T18:58:12.874Z,96.76
2024-03-08T19:01:14.799Z,97.87
2024-03-08T19:04:17.227Z,96.64
2024-03-08T19:07:23.224Z,97.76
2024-03-08T19:10:26.648Z,98.34
2024-03-08T19:13:28.877Z,98.57
2024-03-08T19:16:30.734Z,98.09
2024-03-08T19:19:35.878Z,98.29
2024-03-08T19:22:38.932Z,98.56
2024-03-08T19:25:45.851Z,98.02
2024-03-08T19:28:48.187Z,98.20
2024-03-08T19:31:50.858Z,99.70
2024-03-08T19:34:53.167Z,99.20
2024-03-08T19:37:56.788Z,99.00
2024-03-08T19:40:58.768Z,100.00
2024-03-08T19:44:00.781Z,98.48
2024-03-08T19:47:05.614Z,99.49
2024-03-08T19:50:10.221Z,100.00
2024-03-08T19:53:12.718Z,100.00
2024-03-08T19:56:14.598Z,99.39
2024-03-08T19:59:16.677Z,99.39
2024-03-08T20:02:19.209Z,99.55
2024-03-08T20:05:22.238Z,100.00
2024-03-08T20:08:29.813Z,98.33
2024-03-08T20:11:33.314Z,98.10
2024-03-08T20:14:36.347Z,98.32
2024-03-08T20:17:39.745Z,99.97
2024-03-08T20:20:44.246Z,99.30
2024-03-08T20:23:46.613Z,100.00
2024-03-08T20:26:48.341Z,100.00
2024-03-08T20:29:50.378Z,100.00
2024-03-08T20:32:55.613Z,100.00
2024-03-08T20:35:57.442Z,100.00
2024-03-08T20:38:59.213Z,100.00
2024-03-08T20:42:01.338Z,100.00
2024-03-08T20:45:04.474Z,99.90
2024-03-08T20:48:07.637Z,100.00
2024-03-08T20:51:09.635Z,100.00
2024-03-08T20:54:11.397Z,100.00
2024-03-08T20:57:14.185Z,100.00
2024-03-08T21:00:20.488Z,100.00
2024-03-08T21:03:24.701Z,100.00
2024-03-08T21:06:26.713Z,99.88
2024-03-08T21:09:32.035Z,100.00
2024-03-08T21:12:34.278Z,100.00
2024-03-08T21:15:36.761Z,100.00
2024-03-08T21:18:39.998Z,99.92
2024-03-08T21:21:42.157Z,100.00
2024-03-08T21:24:44.145Z,100.00
2024-03-08T21:27:48.909Z,100.00
2024-03-08T21:30:51.675Z,100.00
2024-03-08T21:33:54.535Z,100.00
2024-03-08T21:36:57.938Z,100.00
2024-03-08T21:40:01.161Z,100.00
2024-03-08T21:43:04.721Z,100.00
2024-03-08T21:46:06.822Z,100.00
2024-03-08T21:49:08.556Z,100.00
2024-03-08T21:52:10.310Z,100.00
2024-03-08T21:55:13.028Z,100.00
2024-03-08T21:58:14.867Z,100.00
2024-03-08T22:01:18.618Z,100.00
2024-03-08T22:04:24.107Z,100.00
2024-03-08T22:07:25.933Z,100.00
2024-03-08T22:10:30.763Z,100.00
2024-03-08T22:13:32.916Z,100.00
2024-03-08T22:16:36.581Z,100.00
2024-03-08T22:19:38.501Z,100.00
2024-03-08T22:22:41.908Z,100.00
2024-03-08T22:25:43.858Z,100.00
2024-03-08T22:28:48.142Z,100.00
2024-03-08T22:31:50.717Z,100.00
2024-03-08T22:34:52.543Z,100.00
2024-03-08T22:37:55.474Z,100.00
2024-03-08T22:40:59.546Z,100.00
2024-03-08T22:44:01.530Z,100.00
2024-03-08T22:47:04.839Z,100.00
2024-03-08T22:50:09.330Z,100.00
2024-03-08T22:53:14.745Z,100.00
2024-03-08T22:56:16.796Z,100.00
2024-03-08T22:59:18.892Z,100.00
2024-03-08T23:02:21.568Z,100.00
2024-03-08T23:05:23.963Z,100.00
2024-03-08T23:08:30.718Z,100.00
2024-03-08T23:11:32.560Z,100.00
2024-03-08T23:14:34.373Z,100.00
2024-03-08T23:17:44.936Z,100.00
2024-03-08T23:20:50.026Z,100.00
2024-03-08T23:23:52.163Z,100.00
2024-03-08T23:26:54.122Z,100.00
2024-03-08T23:29:57.650Z,100.00
2024-03-08T23:32:59.524Z,100.00
2024-03-08T23:36:01.572Z,100.00
2024-03-08T23:39:03.665Z,100.00
2024-03-08T23:42:05.925Z,100.00
2024-03-08T23:45:12.601Z,100.00
2024-03-08T23:48:15.853Z,100.00
2024-03-08T23:51:19.341Z,100.00
2024-03-08T23:54:23.644Z,100.00
2024-03-08T23:57:25.468Z,100.00
